sensor_id;sensor_type;location;lat;lon;timestamp;P1;durP1;ratioP1;P2;durP2;ratioP2
3587;SDS011;1808;53.596;9.972;2023-02-10T00:02:14;39.70;;;17.20;;
3587;SDS011;1808;53.596;9.972;2023-02-10T00:04:40;48.67;;;18.58;;
3587;SDS011;1808;53.596;9.972;2023-02-10T00:07:06;50.13;;;23.10;;
3587;SDS011;1808;53.596;9.972;2023-02-10T00:09:33;48.20;;;17.98;;
3587;SDS011;1808;53.596;9.972;2023-02-10T00:12:01;47.25;;;19.90;;
3587;SDS011;1808;53.596;9.972;2023-02-10T00:14:28;47.53;;;19.98;;
3587;SDS011;1808;53.596;9.972;2023-02-10T00:16:55;51.35;;;21.75;;
3587;SDS011;1808;53.596;9.972;2023-02-10T00:19:23;40.80;;;17.63;;
3587;SDS011;1808;53.596;9.972;2023-02-10T00:21:50;46.50;;;19.77;;
3587;SDS011;1808;53.596;9.972;2023-02-10T00:24:17;46.13;;;19.95;;
3587;SDS011;1808;53.596;9.972;2023-02-10T00:26:43;56.55;;;20.60;;
3587;SDS011;1808;53.596;9.972;2023-02-10T00:29:12;43.55;;;17.65;;
3587;SDS011;1808;53.596;9.972;2023-02-10T00:31:38;49.22;;;18.85;;
3587;SDS011;1808;53.596;9.972;2023-02-10T00:34:05;46.28;;;19.00;;
3587;SDS011;1808;53.596;9.972;2023-02-10T00:36:31;46.67;;;18.60;;
3587;SDS011;1808;53.596;9.972;2023-02-10T00:38:58;50.63;;;19.27;;
3587;SDS011;1808;53.596;9.972;2023-02-10T00:41:24;52.33;;;19.52;;
3587;SDS011;1808;53.596;9.972;2023-02-10T00:43:51;41.80;;;18.70;;
3587;SDS011;1808;53.596;9.972;2023-02-10T00:46:19;40.60;;;16.58;;
3587;SDS011;1808;53.596;9.972;2023-02-10T00:48:47;49.92;;;16.73;;
3587;SDS011;1808;53.596;9.972;2023-02-10T00:51:14;43.00;;;15.45;;
3587;SDS011;1808;53.596;9.972;2023-02-10T00:53:41;44.53;;;17.35;;
3587;SDS011;1808;53.596;9.972;2023-02-10T00:56:08;49.38;;;19.25;;
3587;SDS011;1808;53.596;9.972;2023-02-10T00:58:35;48.42;;;19.77;;
3587;SDS011;1808;53.596;9.972;2023-02-10T01:01:01;53.00;;;18.92;;
3587;SDS011;1808;53.596;9.972;2023-02-10T01:03:29;53.97;;;21.90;;
3587;SDS011;1808;53.596;9.972;2023-02-10T01:05:56;50.72;;;16.98;;
3587;SDS011;1808;53.596;9.972;2023-02-10T01:08:22;36.28;;;16.83;;
3587;SDS011;1808;53.596;9.972;2023-02-10T01:10:49;46.33;;;17.10;;
3587;SDS011;1808;53.596;9.972;2023-02-10T01:13:15;52.78;;;21.88;;
3587;SDS011;1808;53.596;9.972;2023-02-10T01:15:42;48.58;;;17.45;;
3587;SDS011;1808;53.596;9.972;2023-02-10T01:18:09;53.67;;;22.15;;
3587;SDS011;1808;53.596;9.972;2023-02-10T01:20:38;53.00;;;18.38;;
3587;SDS011;1808;53.596;9.972;2023-02-10T01:23:05;40.10;;;16.83;;
3587;SDS011;1808;53.596;9.972;2023-02-10T01:25:32;47.10;;;17.67;;
3587;SDS011;1808;53.596;9.972;2023-02-10T01:27:58;45.13;;;16.67;;
3587;SDS011;1808;53.596;9.972;2023-02-10T01:30:25;44.00;;;19.05;;
3587;SDS011;1808;53.596;9.972;2023-02-10T01:32:52;54.15;;;19.27;;
3587;SDS011;1808;53.596;9.972;2023-02-10T01:35:19;47.47;;;19.05;;
3587;SDS011;1808;53.596;9.972;2023-02-10T01:37:46;45.75;;;15.88;;
3587;SDS011;1808;53.596;9.972;2023-02-10T01:40:13;44.97;;;17.60;;
3587;SDS011;1808;53.596;9.972;2023-02-10T01:42:39;49.13;;;17.33;;
3587;SDS011;1808;53.596;9.972;2023-02-10T01:45:15;39.78;;;17.38;;
3587;SDS011;1808;53.596;9.972;2023-02-10T01:47:44;40.80;;;14.80;;
3587;SDS011;1808;53.596;9.972;2023-02-10T01:50:11;43.00;;;15.27;;
3587;SDS011;1808;53.596;9.972;2023-02-10T01:52:38;53.20;;;16.67;;
3587;SDS011;1808;53.596;9.972;2023-02-10T01:55:07;40.03;;;16.10;;
3587;SDS011;1808;53.596;9.972;2023-02-10T01:57:35;35.72;;;14.75;;
3587;SDS011;1808;53.596;9.972;2023-02-10T02:00:04;44.03;;;15.05;;
3587;SDS011;1808;53.596;9.972;2023-02-10T02:02:32;43.80;;;15.95;;
3587;SDS011;1808;53.596;9.972;2023-02-10T02:05:00;34.92;;;14.25;;
3587;SDS011;1808;53.596;9.972;2023-02-10T02:07:29;42.55;;;16.63;;
3587;SDS011;1808;53.596;9.972;2023-02-10T02:09:58;45.92;;;15.68;;
3587;SDS011;1808;53.596;9.972;2023-02-10T02:12:26;48.67;;;17.52;;
3587;SDS011;1808;53.596;9.972;2023-02-10T02:14:57;50.08;;;15.40;;
3587;SDS011;1808;53.596;9.972;2023-02-10T02:17:29;42.13;;;14.80;;
3587;SDS011;1808;53.596;9.972;2023-02-10T02:20:08;51.80;;;20.08;;
3587;SDS011;1808;53.596;9.972;2023-02-10T02:23:10;42.75;;;15.95;;
3587;SDS011;1808;53.596;9.972;2023-02-10T02:25:43;42.55;;;14.55;;
3587;SDS011;1808;53.596;9.972;2023-02-10T02:28:36;44.45;;;15.75;;
3587;SDS011;1808;53.596;9.972;2023-02-10T02:31:25;46.65;;;16.30;;
3587;SDS011;1808;53.596;9.972;2023-02-10T02:34:03;40.15;;;15.45;;
3587;SDS011;1808;53.596;9.972;2023-02-10T02:36:34;47.83;;;17.02;;
3587;SDS011;1808;53.596;9.972;2023-02-10T02:39:03;42.60;;;15.98;;
3587;SDS011;1808;53.596;9.972;2023-02-10T02:41:31;48.58;;;16.08;;
3587;SDS011;1808;53.596;9.972;2023-02-10T02:43:59;41.53;;;16.08;;
3587;SDS011;1808;53.596;9.972;2023-02-10T02:46:28;47.95;;;17.45;;
3587;SDS011;1808;53.596;9.972;2023-02-10T02:49:02;34.80;;;14.35;;
3587;SDS011;1808;53.596;9.972;2023-02-10T02:54:08;48.30;;;16.50;;
3587;SDS011;1808;53.596;9.972;2023-02-10T02:56:40;48.67;;;19.38;;
3587;SDS011;1808;53.596;9.972;2023-02-10T02:59:10;58.08;;;24.38;;
3587;SDS011;1808;53.596;9.972;2023-02-10T03:01:42;52.45;;;18.13;;
3587;SDS011;1808;53.596;9.972;2023-02-10T03:04:11;39.70;;;15.50;;
3587;SDS011;1808;53.596;9.972;2023-02-10T03:06:38;48.28;;;18.08;;
3587;SDS011;1808;53.596;9.972;2023-02-10T03:09:05;50.53;;;18.45;;
3587;SDS011;1808;53.596;9.972;2023-02-10T03:11:31;54.35;;;18.95;;
3587;SDS011;1808;53.596;9.972;2023-02-10T03:13:58;47.63;;;18.75;;
3587;SDS011;1808;53.596;9.972;2023-02-10T03:16:24;51.67;;;17.67;;
3587;SDS011;1808;53.596;9.972;2023-02-10T03:18:52;50.17;;;18.10;;
3587;SDS011;1808;53.596;9.972;2023-02-10T03:21:18;40.95;;;16.70;;
3587;SDS011;1808;53.596;9.972;2023-02-10T03:23:45;54.60;;;21.05;;
3587;SDS011;1808;53.596;9.972;2023-02-10T03:26:11;55.50;;;19.65;;
3587;SDS011;1808;53.596;9.972;2023-02-10T03:28:38;55.10;;;19.33;;
3587;SDS011;1808;53.596;9.972;2023-02-10T03:31:04;57.72;;;20.42;;
3587;SDS011;1808;53.596;9.972;2023-02-10T03:33:32;50.30;;;19.05;;
3587;SDS011;1808;53.596;9.972;2023-02-10T03:35:59;53.00;;;20.50;;
3587;SDS011;1808;53.596;9.972;2023-02-10T03:38:26;65.13;;;25.75;;
3587;SDS011;1808;53.596;9.972;2023-02-10T03:40:53;50.42;;;18.98;;
3587;SDS011;1808;53.596;9.972;2023-02-10T03:43:20;50.28;;;19.80;;
3587;SDS011;1808;53.596;9.972;2023-02-10T03:45:47;67.72;;;28.08;;
3587;SDS011;1808;53.596;9.972;2023-02-10T03:48:14;52.35;;;18.42;;
3587;SDS011;1808;53.596;9.972;2023-02-10T03:50:40;68.18;;;24.77;;
3587;SDS011;1808;53.596;9.972;2023-02-10T03:53:08;54.60;;;20.98;;
3587;SDS011;1808;53.596;9.972;2023-02-10T03:55:35;54.42;;;21.95;;
3587;SDS011;1808;53.596;9.972;2023-02-10T03:58:01;58.42;;;22.40;;
3587;SDS011;1808;53.596;9.972;2023-02-10T04:00:28;60.20;;;24.08;;
3587;SDS011;1808;53.596;9.972;2023-02-10T04:02:55;45.40;;;19.45;;
3587;SDS011;1808;53.596;9.972;2023-02-10T04:05:21;50.58;;;21.08;;
3587;SDS011;1808;53.596;9.972;2023-02-10T04:07:48;57.03;;;22.27;;
3587;SDS011;1808;53.596;9.972;2023-02-10T04:10:15;58.83;;;22.90;;
3587;SDS011;1808;53.596;9.972;2023-02-10T04:12:42;60.47;;;23.42;;
3587;SDS011;1808;53.596;9.972;2023-02-10T04:15:08;51.17;;;22.60;;
3587;SDS011;1808;53.596;9.972;2023-02-10T04:17:34;76.95;;;29.42;;
3587;SDS011;1808;53.596;9.972;2023-02-10T04:20:01;62.30;;;24.65;;
3587;SDS011;1808;53.596;9.972;2023-02-10T04:22:27;69.18;;;25.55;;
3587;SDS011;1808;53.596;9.972;2023-02-10T04:24:53;59.83;;;23.27;;
3587;SDS011;1808;53.596;9.972;2023-02-10T04:27:21;67.28;;;24.65;;
3587;SDS011;1808;53.596;9.972;2023-02-10T04:29:47;59.65;;;23.77;;
3587;SDS011;1808;53.596;9.972;2023-02-10T04:32:13;76.05;;;27.08;;
3587;SDS011;1808;53.596;9.972;2023-02-10T04:34:40;85.75;;;33.90;;
3587;SDS011;1808;53.596;9.972;2023-02-10T04:37:06;72.63;;;24.58;;
3587;SDS011;1808;53.596;9.972;2023-02-10T04:39:32;78.93;;;28.92;;
3587;SDS011;1808;53.596;9.972;2023-02-10T04:41:59;69.95;;;24.05;;
3587;SDS011;1808;53.596;9.972;2023-02-10T04:44:26;65.35;;;27.70;;
3587;SDS011;1808;53.596;9.972;2023-02-10T04:46:53;66.53;;;23.58;;
3587;SDS011;1808;53.596;9.972;2023-02-10T04:49:19;77.78;;;24.90;;
3587;SDS011;1808;53.596;9.972;2023-02-10T04:51:46;66.15;;;22.15;;
3587;SDS011;1808;53.596;9.972;2023-02-10T04:54:12;57.72;;;22.92;;
3587;SDS011;1808;53.596;9.972;2023-02-10T04:56:39;105.63;;;39.88;;
3587;SDS011;1808;53.596;9.972;2023-02-10T04:59:05;64.07;;;23.40;;
3587;SDS011;1808;53.596;9.972;2023-02-10T05:01:33;67.03;;;25.75;;
3587;SDS011;1808;53.596;9.972;2023-02-10T05:03:59;74.38;;;24.95;;
3587;SDS011;1808;53.596;9.972;2023-02-10T05:06:26;67.93;;;24.20;;
3587;SDS011;1808;53.596;9.972;2023-02-10T05:08:52;85.10;;;29.40;;
3587;SDS011;1808;53.596;9.972;2023-02-10T05:11:18;87.85;;;29.80;;
3587;SDS011;1808;53.596;9.972;2023-02-10T05:13:45;83.35;;;25.88;;
3587;SDS011;1808;53.596;9.972;2023-02-10T05:16:11;69.82;;;25.90;;
3587;SDS011;1808;53.596;9.972;2023-02-10T05:18:40;66.10;;;25.52;;
3587;SDS011;1808;53.596;9.972;2023-02-10T05:21:07;58.13;;;22.65;;
3587;SDS011;1808;53.596;9.972;2023-02-10T05:23:34;60.03;;;23.27;;
3587;SDS011;1808;53.596;9.972;2023-02-10T05:26:00;75.45;;;26.58;;
3587;SDS011;1808;53.596;9.972;2023-02-10T05:28:27;72.65;;;28.55;;
3587;SDS011;1808;53.596;9.972;2023-02-10T05:30:53;81.78;;;26.73;;
3587;SDS011;1808;53.596;9.972;2023-02-10T05:33:20;74.80;;;24.23;;
3587;SDS011;1808;53.596;9.972;2023-02-10T05:35:48;69.40;;;25.75;;
3587;SDS011;1808;53.596;9.972;2023-02-10T05:38:14;50.42;;;22.15;;
3587;SDS011;1808;53.596;9.972;2023-02-10T05:40:40;65.55;;;21.60;;
3587;SDS011;1808;53.596;9.972;2023-02-10T05:43:06;62.92;;;21.63;;
3587;SDS011;1808;53.596;9.972;2023-02-10T05:45:34;96.75;;;33.13;;
3587;SDS011;1808;53.596;9.972;2023-02-10T05:48:01;68.68;;;27.05;;
3587;SDS011;1808;53.596;9.972;2023-02-10T05:50:27;66.50;;;23.60;;
3587;SDS011;1808;53.596;9.972;2023-02-10T05:52:55;79.10;;;25.90;;
3587;SDS011;1808;53.596;9.972;2023-02-10T05:55:22;66.60;;;27.25;;
3587;SDS011;1808;53.596;9.972;2023-02-10T05:57:48;58.38;;;22.75;;
3587;SDS011;1808;53.596;9.972;2023-02-10T06:00:15;85.15;;;25.33;;
3587;SDS011;1808;53.596;9.972;2023-02-10T06:02:42;71.88;;;25.20;;
3587;SDS011;1808;53.596;9.972;2023-02-10T06:05:10;62.17;;;22.75;;
3587;SDS011;1808;53.596;9.972;2023-02-10T06:07:36;73.15;;;23.85;;
3587;SDS011;1808;53.596;9.972;2023-02-10T06:10:04;54.28;;;21.42;;
3587;SDS011;1808;53.596;9.972;2023-02-10T06:12:31;73.45;;;26.60;;
3587;SDS011;1808;53.596;9.972;2023-02-10T06:14:57;52.60;;;20.98;;
3587;SDS011;1808;53.596;9.972;2023-02-10T06:17:23;67.70;;;24.13;;
3587;SDS011;1808;53.596;9.972;2023-02-10T06:19:51;78.82;;;26.83;;
3587;SDS011;1808;53.596;9.972;2023-02-10T06:22:17;72.35;;;26.10;;
3587;SDS011;1808;53.596;9.972;2023-02-10T06:24:43;62.40;;;23.58;;
3587;SDS011;1808;53.596;9.972;2023-02-10T06:27:11;62.80;;;20.40;;
3587;SDS011;1808;53.596;9.972;2023-02-10T06:29:39;66.72;;;26.00;;
3587;SDS011;1808;53.596;9.972;2023-02-10T06:32:05;68.90;;;23.40;;
3587;SDS011;1808;53.596;9.972;2023-02-10T06:34:31;81.55;;;32.10;;
3587;SDS011;1808;53.596;9.972;2023-02-10T06:36:58;67.88;;;25.08;;
3587;SDS011;1808;53.596;9.972;2023-02-10T06:39:24;65.13;;;23.45;;
3587;SDS011;1808;53.596;9.972;2023-02-10T06:41:50;64.70;;;23.75;;
3587;SDS011;1808;53.596;9.972;2023-02-10T06:44:18;81.35;;;27.33;;
3587;SDS011;1808;53.596;9.972;2023-02-10T06:46:44;85.95;;;26.20;;
3587;SDS011;1808;53.596;9.972;2023-02-10T06:49:11;72.28;;;25.02;;
3587;SDS011;1808;53.596;9.972;2023-02-10T06:51:37;69.93;;;23.85;;
3587;SDS011;1808;53.596;9.972;2023-02-10T06:54:03;74.95;;;25.92;;
3587;SDS011;1808;53.596;9.972;2023-02-10T06:56:30;84.65;;;27.88;;
3587;SDS011;1808;53.596;9.972;2023-02-10T06:58:56;64.45;;;24.52;;
3587;SDS011;1808;53.596;9.972;2023-02-10T07:01:24;79.60;;;26.00;;
3587;SDS011;1808;53.596;9.972;2023-02-10T07:03:50;55.45;;;21.40;;
3587;SDS011;1808;53.596;9.972;2023-02-10T07:06:16;88.50;;;28.33;;
3587;SDS011;1808;53.596;9.972;2023-02-10T07:08:43;76.97;;;28.80;;
3587;SDS011;1808;53.596;9.972;2023-02-10T07:11:09;84.28;;;27.17;;
3587;SDS011;1808;53.596;9.972;2023-02-10T07:13:36;83.10;;;28.88;;
3587;SDS011;1808;53.596;9.972;2023-02-10T07:16:02;84.47;;;27.67;;
3587;SDS011;1808;53.596;9.972;2023-02-10T07:18:30;89.10;;;28.38;;
3587;SDS011;1808;53.596;9.972;2023-02-10T07:20:56;85.93;;;28.80;;
3587;SDS011;1808;53.596;9.972;2023-02-10T07:23:22;83.93;;;28.10;;
3587;SDS011;1808;53.596;9.972;2023-02-10T07:25:48;70.72;;;28.08;;
3587;SDS011;1808;53.596;9.972;2023-02-10T07:28:15;84.97;;;26.58;;
3587;SDS011;1808;53.596;9.972;2023-02-10T07:30:41;85.03;;;28.10;;
3587;SDS011;1808;53.596;9.972;2023-02-10T07:33:07;101.07;;;28.45;;
3587;SDS011;1808;53.596;9.972;2023-02-10T07:35:35;64.13;;;24.17;;
3587;SDS011;1808;53.596;9.972;2023-02-10T07:38:01;88.78;;;28.45;;
3587;SDS011;1808;53.596;9.972;2023-02-10T07:40:27;84.80;;;27.25;;
3587;SDS011;1808;53.596;9.972;2023-02-10T07:42:55;78.97;;;25.75;;
3587;SDS011;1808;53.596;9.972;2023-02-10T07:45:21;95.35;;;27.92;;
3587;SDS011;1808;53.596;9.972;2023-02-10T07:47:48;76.35;;;26.67;;
3587;SDS011;1808;53.596;9.972;2023-02-10T07:50:14;93.22;;;34.13;;
3587;SDS011;1808;53.596;9.972;2023-02-10T07:52:42;82.15;;;27.65;;
3587;SDS011;1808;53.596;9.972;2023-02-10T07:55:08;65.75;;;25.08;;
3587;SDS011;1808;53.596;9.972;2023-02-10T07:57:35;82.35;;;27.92;;
3587;SDS011;1808;53.596;9.972;2023-02-10T08:00:04;76.97;;;24.38;;
3587;SDS011;1808;53.596;9.972;2023-02-10T08:02:31;79.40;;;26.65;;
3587;SDS011;1808;53.596;9.972;2023-02-10T08:04:57;67.57;;;25.58;;
3587;SDS011;1808;53.596;9.972;2023-02-10T08:07:24;88.68;;;28.25;;
3587;SDS011;1808;53.596;9.972;2023-02-10T08:09:52;69.72;;;26.00;;
3587;SDS011;1808;53.596;9.972;2023-02-10T08:12:18;88.25;;;29.55;;
3587;SDS011;1808;53.596;9.972;2023-02-10T08:14:45;70.18;;;23.85;;
3587;SDS011;1808;53.596;9.972;2023-02-10T08:17:11;80.53;;;25.83;;
3587;SDS011;1808;53.596;9.972;2023-02-10T08:19:38;59.90;;;22.27;;
3587;SDS011;1808;53.596;9.972;2023-02-10T08:22:04;81.57;;;26.70;;
3587;SDS011;1808;53.596;9.972;2023-02-10T08:24:31;77.47;;;25.13;;
3587;SDS011;1808;53.596;9.972;2023-02-10T08:26:59;84.93;;;34.30;;
3587;SDS011;1808;53.596;9.972;2023-02-10T08:29:25;65.13;;;23.65;;
3587;SDS011;1808;53.596;9.972;2023-02-10T08:31:52;76.15;;;26.45;;
3587;SDS011;1808;53.596;9.972;2023-02-10T08:34:19;81.43;;;25.42;;
3587;SDS011;1808;53.596;9.972;2023-02-10T08:36:46;80.18;;;24.05;;
3587;SDS011;1808;53.596;9.972;2023-02-10T08:39:13;72.97;;;25.45;;
3587;SDS011;1808;53.596;9.972;2023-02-10T08:41:40;76.30;;;26.60;;
3587;SDS011;1808;53.596;9.972;2023-02-10T08:44:09;71.70;;;23.40;;
3587;SDS011;1808;53.596;9.972;2023-02-10T08:46:37;73.75;;;24.35;;
3587;SDS011;1808;53.596;9.972;2023-02-10T08:49:04;65.55;;;22.27;;
3587;SDS011;1808;53.596;9.972;2023-02-10T08:51:30;66.97;;;24.60;;
3587;SDS011;1808;53.596;9.972;2023-02-10T08:53:59;78.38;;;27.17;;
3587;SDS011;1808;53.596;9.972;2023-02-10T08:56:25;76.32;;;25.42;;
3587;SDS011;1808;53.596;9.972;2023-02-10T08:58:52;49.53;;;20.33;;
3587;SDS011;1808;53.596;9.972;2023-02-10T09:01:21;64.10;;;21.77;;
3587;SDS011;1808;53.596;9.972;2023-02-10T09:03:50;84.05;;;27.30;;
3587;SDS011;1808;53.596;9.972;2023-02-10T09:06:18;67.55;;;26.48;;
3587;SDS011;1808;53.596;9.972;2023-02-10T09:08:47;80.05;;;27.65;;
3587;SDS011;1808;53.596;9.972;2023-02-10T09:11:16;77.32;;;24.17;;
3587;SDS011;1808;53.596;9.972;2023-02-10T09:13:42;67.00;;;21.73;;
3587;SDS011;1808;53.596;9.972;2023-02-10T09:16:09;63.90;;;19.83;;
3587;SDS011;1808;53.596;9.972;2023-02-10T09:18:37;88.78;;;26.25;;
3587;SDS011;1808;53.596;9.972;2023-02-10T09:21:04;84.78;;;25.90;;
3587;SDS011;1808;53.596;9.972;2023-02-10T09:23:30;68.53;;;23.17;;
3587;SDS011;1808;53.596;9.972;2023-02-10T09:25:57;55.72;;;20.50;;
3587;SDS011;1808;53.596;9.972;2023-02-10T09:28:25;80.72;;;28.20;;
3587;SDS011;1808;53.596;9.972;2023-02-10T09:30:53;84.15;;;28.75;;
3587;SDS011;1808;53.596;9.972;2023-02-10T09:33:19;56.17;;;22.95;;
3587;SDS011;1808;53.596;9.972;2023-02-10T09:35:47;81.18;;;28.58;;
3587;SDS011;1808;53.596;9.972;2023-02-10T09:38:14;78.32;;;25.33;;
3587;SDS011;1808;53.596;9.972;2023-02-10T09:40:45;74.50;;;26.13;;
3587;SDS011;1808;53.596;9.972;2023-02-10T09:43:17;81.43;;;31.02;;
3587;SDS011;1808;53.596;9.972;2023-02-10T09:45:52;93.68;;;25.55;;
3587;SDS011;1808;53.596;9.972;2023-02-10T09:48:25;85.85;;;35.63;;
3587;SDS011;1808;53.596;9.972;2023-02-10T09:51:01;60.20;;;20.63;;
3587;SDS011;1808;53.596;9.972;2023-02-10T09:53:30;86.03;;;29.13;;
3587;SDS011;1808;53.596;9.972;2023-02-10T09:55:58;71.57;;;25.08;;
3587;SDS011;1808;53.596;9.972;2023-02-10T09:58:29;106.15;;;39.53;;
3587;SDS011;1808;53.596;9.972;2023-02-10T10:00:59;94.68;;;34.25;;
3587;SDS011;1808;53.596;9.972;2023-02-10T10:03:33;80.43;;;25.00;;
3587;SDS011;1808;53.596;9.972;2023-02-10T10:06:06;88.80;;;29.80;;
3587;SDS011;1808;53.596;9.972;2023-02-10T10:08:39;83.75;;;28.58;;
3587;SDS011;1808;53.596;9.972;2023-02-10T10:11:17;97.97;;;36.03;;
3587;SDS011;1808;53.596;9.972;2023-02-10T10:13:48;62.20;;;23.02;;
3587;SDS011;1808;53.596;9.972;2023-02-10T10:16:17;77.15;;;23.52;;
3587;SDS011;1808;53.596;9.972;2023-02-10T10:18:53;73.45;;;25.85;;
3587;SDS011;1808;53.596;9.972;2023-02-10T10:21:28;61.92;;;25.15;;
3587;SDS011;1808;53.596;9.972;2023-02-10T10:24:01;71.10;;;21.25;;
3587;SDS011;1808;53.596;9.972;2023-02-10T10:26:38;75.60;;;28.50;;
3587;SDS011;1808;53.596;9.972;2023-02-10T10:29:18;77.20;;;24.92;;
3587;SDS011;1808;53.596;9.972;2023-02-10T10:31:47;63.47;;;23.05;;
3587;SDS011;1808;53.596;9.972;2023-02-10T10:34:15;84.85;;;38.00;;
3587;SDS011;1808;53.596;9.972;2023-02-10T10:36:45;76.00;;;25.23;;
3587;SDS011;1808;53.596;9.972;2023-02-10T10:39:13;88.63;;;28.88;;
3587;SDS011;1808;53.596;9.972;2023-02-10T10:41:41;78.57;;;26.85;;
3587;SDS011;1808;53.596;9.972;2023-02-10T10:44:09;69.25;;;24.20;;
3587;SDS011;1808;53.596;9.972;2023-02-10T10:46:38;75.43;;;30.73;;
3587;SDS011;1808;53.596;9.972;2023-02-10T10:49:08;78.05;;;28.20;;
3587;SDS011;1808;53.596;9.972;2023-02-10T10:51:34;73.82;;;28.08;;
3587;SDS011;1808;53.596;9.972;2023-02-10T10:54:04;55.13;;;23.83;;
3587;SDS011;1808;53.596;9.972;2023-02-10T10:56:34;64.50;;;27.15;;
3587;SDS011;1808;53.596;9.972;2023-02-10T10:59:03;71.18;;;24.77;;
3587;SDS011;1808;53.596;9.972;2023-02-10T11:01:35;76.60;;;31.33;;
3587;SDS011;1808;53.596;9.972;2023-02-10T11:04:03;78.25;;;25.88;;
3587;SDS011;1808;53.596;9.972;2023-02-10T11:06:32;57.30;;;24.13;;
3587;SDS011;1808;53.596;9.972;2023-02-10T11:09:00;76.90;;;26.55;;
3587;SDS011;1808;53.596;9.972;2023-02-10T11:11:31;63.05;;;23.83;;
3587;SDS011;1808;53.596;9.972;2023-02-10T11:13:58;72.47;;;25.67;;
3587;SDS011;1808;53.596;9.972;2023-02-10T11:16:25;69.82;;;25.42;;
3587;SDS011;1808;53.596;9.972;2023-02-10T11:18:52;65.78;;;26.45;;
3587;SDS011;1808;53.596;9.972;2023-02-10T11:21:19;72.45;;;25.45;;
3587;SDS011;1808;53.596;9.972;2023-02-10T11:23:47;59.03;;;22.48;;
3587;SDS011;1808;53.596;9.972;2023-02-10T11:26:18;55.33;;;21.42;;
3587;SDS011;1808;53.596;9.972;2023-02-10T11:28:45;63.58;;;22.08;;
3587;SDS011;1808;53.596;9.972;2023-02-10T11:31:16;59.13;;;24.15;;
3587;SDS011;1808;53.596;9.972;2023-02-10T11:33:54;72.47;;;29.52;;
3587;SDS011;1808;53.596;9.972;2023-02-10T11:36:27;69.40;;;24.23;;
3587;SDS011;1808;53.596;9.972;2023-02-10T11:38:58;62.03;;;25.80;;
3587;SDS011;1808;53.596;9.972;2023-02-10T11:41:29;53.83;;;21.88;;
3587;SDS011;1808;53.596;9.972;2023-02-10T11:43:56;40.80;;;22.02;;
3587;SDS011;1808;53.596;9.972;2023-02-10T11:46:23;58.40;;;23.10;;
3587;SDS011;1808;53.596;9.972;2023-02-10T11:48:51;49.80;;;20.77;;
3587;SDS011;1808;53.596;9.972;2023-02-10T11:51:19;51.58;;;21.42;;
3587;SDS011;1808;53.596;9.972;2023-02-10T11:53:46;55.28;;;24.20;;
3587;SDS011;1808;53.596;9.972;2023-02-10T11:56:14;55.15;;;21.98;;
3587;SDS011;1808;53.596;9.972;2023-02-10T11:58:48;59.08;;;20.17;;
3587;SDS011;1808;53.596;9.972;2023-02-10T12:01:33;44.60;;;19.40;;
3587;SDS011;1808;53.596;9.972;2023-02-10T12:04:10;43.67;;;19.02;;
3587;SDS011;1808;53.596;9.972;2023-02-10T12:06:45;45.40;;;17.58;;
3587;SDS011;1808;53.596;9.972;2023-02-10T12:09:15;51.55;;;17.48;;
3587;SDS011;1808;53.596;9.972;2023-02-10T12:11:51;45.42;;;17.75;;
3587;SDS011;1808;53.596;9.972;2023-02-10T12:14:33;43.05;;;16.75;;
3587;SDS011;1808;53.596;9.972;2023-02-10T12:17:11;44.38;;;14.05;;
3587;SDS011;1808;53.596;9.972;2023-02-10T12:19:47;39.38;;;15.27;;
3587;SDS011;1808;53.596;9.972;2023-02-10T12:22:19;28.73;;;13.82;;
3587;SDS011;1808;53.596;9.972;2023-02-10T12:25:05;40.10;;;13.30;;
3587;SDS011;1808;53.596;9.972;2023-02-10T12:27:41;32.33;;;12.05;;
3587;SDS011;1808;53.596;9.972;2023-02-10T12:30:19;34.47;;;11.88;;
3587;SDS011;1808;53.596;9.972;2023-02-10T12:33:02;33.83;;;11.27;;
3587;SDS011;1808;53.596;9.972;2023-02-10T12:35:44;30.88;;;11.90;;
3587;SDS011;1808;53.596;9.972;2023-02-10T12:38:21;36.97;;;15.82;;
3587;SDS011;1808;53.596;9.972;2023-02-10T12:40:57;32.05;;;12.70;;
3587;SDS011;1808;53.596;9.972;2023-02-10T12:43:38;44.92;;;13.98;;
3587;SDS011;1808;53.596;9.972;2023-02-10T12:46:14;42.35;;;13.50;;
3587;SDS011;1808;53.596;9.972;2023-02-10T12:48:47;38.33;;;13.77;;
3587;SDS011;1808;53.596;9.972;2023-02-10T12:51:21;33.72;;;12.48;;
3587;SDS011;1808;53.596;9.972;2023-02-10T12:53:56;32.63;;;10.88;;
3587;SDS011;1808;53.596;9.972;2023-02-10T12:56:25;35.38;;;13.75;;
3587;SDS011;1808;53.596;9.972;2023-02-10T12:58:54;33.45;;;13.52;;
3587;SDS011;1808;53.596;9.972;2023-02-10T13:01:26;26.23;;;10.48;;
3587;SDS011;1808;53.596;9.972;2023-02-10T13:03:54;29.83;;;11.45;;
3587;SDS011;1808;53.596;9.972;2023-02-10T13:06:25;35.50;;;12.43;;
3587;SDS011;1808;53.596;9.972;2023-02-10T13:08:55;26.33;;;11.57;;
3587;SDS011;1808;53.596;9.972;2023-02-10T13:11:27;35.13;;;13.60;;
3587;SDS011;1808;53.596;9.972;2023-02-10T13:14:08;31.05;;;11.85;;
3587;SDS011;1808;53.596;9.972;2023-02-10T13:16:39;28.88;;;11.60;;
3587;SDS011;1808;53.596;9.972;2023-02-10T13:19:07;26.67;;;10.38;;
3587;SDS011;1808;53.596;9.972;2023-02-10T13:21:39;28.65;;;12.15;;
3587;SDS011;1808;53.596;9.972;2023-02-10T13:24:10;24.40;;;10.50;;
3587;SDS011;1808;53.596;9.972;2023-02-10T13:26:45;39.08;;;13.02;;
3587;SDS011;1808;53.596;9.972;2023-02-10T13:29:17;31.83;;;12.18;;
3587;SDS011;1808;53.596;9.972;2023-02-10T13:31:55;28.08;;;11.00;;
3587;SDS011;1808;53.596;9.972;2023-02-10T13:34:28;31.55;;;12.00;;
3587;SDS011;1808;53.596;9.972;2023-02-10T13:36:56;37.47;;;11.57;;
3587;SDS011;1808;53.596;9.972;2023-02-10T13:39:24;24.27;;;9.90;;
3587;SDS011;1808;53.596;9.972;2023-02-10T13:42:03;21.02;;;8.50;;
3587;SDS011;1808;53.596;9.972;2023-02-10T13:44:32;18.50;;;8.85;;
3587;SDS011;1808;53.596;9.972;2023-02-10T13:47:14;17.00;;;7.63;;
3587;SDS011;1808;53.596;9.972;2023-02-10T13:49:50;15.52;;;6.95;;
3587;SDS011;1808;53.596;9.972;2023-02-10T13:52:18;24.60;;;9.27;;
3587;SDS011;1808;53.596;9.972;2023-02-10T13:54:53;18.48;;;8.15;;
3587;SDS011;1808;53.596;9.972;2023-02-10T13:57:24;27.08;;;10.32;;
3587;SDS011;1808;53.596;9.972;2023-02-10T13:59:51;26.67;;;8.80;;
3587;SDS011;1808;53.596;9.972;2023-02-10T14:02:20;27.27;;;9.68;;
3587;SDS011;1808;53.596;9.972;2023-02-10T14:04:48;17.60;;;8.70;;
3587;SDS011;1808;53.596;9.972;2023-02-10T14:07:16;31.67;;;11.10;;
3587;SDS011;1808;53.596;9.972;2023-02-10T14:10:01;31.40;;;9.95;;
3587;SDS011;1808;53.596;9.972;2023-02-10T14:12:53;23.92;;;9.48;;
3587;SDS011;1808;53.596;9.972;2023-02-10T14:15:22;25.75;;;10.05;;
3587;SDS011;1808;53.596;9.972;2023-02-10T14:17:56;30.58;;;11.18;;
3587;SDS011;1808;53.596;9.972;2023-02-10T14:20:24;26.73;;;11.15;;
3587;SDS011;1808;53.596;9.972;2023-02-10T14:22:52;29.85;;;12.07;;
3587;SDS011;1808;53.596;9.972;2023-02-10T14:25:25;28.58;;;11.13;;
3587;SDS011;1808;53.596;9.972;2023-02-10T14:30:22;24.35;;;11.75;;
3587;SDS011;1808;53.596;9.972;2023-02-10T14:32:50;28.42;;;11.40;;
3587;SDS011;1808;53.596;9.972;2023-02-10T14:35:19;35.70;;;12.13;;
3587;SDS011;1808;53.596;9.972;2023-02-10T14:37:49;27.95;;;13.00;;
3587;SDS011;1808;53.596;9.972;2023-02-10T14:40:16;29.00;;;11.65;;
3587;SDS011;1808;53.596;9.972;2023-02-10T14:42:43;29.42;;;13.80;;
3587;SDS011;1808;53.596;9.972;2023-02-10T14:45:16;37.78;;;15.02;;
3587;SDS011;1808;53.596;9.972;2023-02-10T14:47:44;29.05;;;11.80;;
3587;SDS011;1808;53.596;9.972;2023-02-10T14:50:22;31.10;;;12.65;;
3587;SDS011;1808;53.596;9.972;2023-02-10T14:52:52;23.20;;;11.55;;
3587;SDS011;1808;53.596;9.972;2023-02-10T14:55:22;31.02;;;11.50;;
3587;SDS011;1808;53.596;9.972;2023-02-10T14:57:51;29.70;;;11.95;;
3587;SDS011;1808;53.596;9.972;2023-02-10T15:00:18;39.75;;;14.43;;
3587;SDS011;1808;53.596;9.972;2023-02-10T15:02:45;32.90;;;16.67;;
3587;SDS011;1808;53.596;9.972;2023-02-10T15:05:16;32.28;;;11.77;;